createdAt,value
2022-09-13T00:01:19.173Z,13.20
2022-09-13T00:03:55.367Z,13.15
2022-09-13T00:06:31.436Z,13.13
2022-09-13T00:09:04.771Z,13.11
2022-09-13T00:11:40.556Z,13.10
2022-09-13T00:14:13.913Z,13.08
2022-09-13T00:16:56.012Z,13.06
2022-09-13T00:19:32.038Z,13.05
2022-09-13T00:22:25.491Z,13.01
2022-09-13T00:24:58.829Z,12.96
2022-09-13T00:27:41.109Z,12.92
2022-09-13T00:30:17.836Z,12.90
2022-09-13T00:32:51.067Z,12.88
2022-09-13T00:35:25.226Z,12.87
2022-09-13T00:38:08.710Z,12.83
2022-09-13T00:40:50.975Z,12.82
2022-09-13T00:43:38.324Z,12.79
2022-09-13T00:46:19.432Z,12.78
2022-09-13T00:49:11.014Z,12.77
2022-09-13T00:51:51.088Z,12.77
2022-09-13T00:54:31.643Z,12.77
2022-09-13T00:57:09.353Z,12.79
2022-09-13T01:00:11.828Z,12.78
2022-09-13T01:02:51.211Z,12.76
2022-09-13T01:05:48.929Z,12.75
2022-09-13T01:08:23.789Z,12.75
2022-09-13T01:11:28.214Z,12.74
2022-09-13T01:14:02.325Z,12.70
2022-09-13T01:16:56.386Z,12.68
2022-09-13T01:19:33.169Z,12.68
2022-09-13T01:22:34.801Z,12.67
2022-09-13T01:25:55.527Z,12.68
2022-09-13T01:28:54.305Z,12.66
2022-09-13T01:31:36.418Z,12.61
2022-09-13T01:34:22.793Z,12.55
2022-09-13T01:37:12.229Z,12.52
2022-09-13T01:40:00.986Z,12.49
2022-09-13T01:42:48.745Z,12.47
2022-09-13T01:45:34.170Z,12.48
2022-09-13T01:48:18.192Z,12.48
2022-09-13T01:51:02.556Z,12.45
2022-09-13T01:53:52.148Z,12.43
2022-09-13T01:56:35.480Z,12.39
2022-09-13T01:59:16.001Z,12.34
2022-09-13T02:01:58.915Z,12.31
2022-09-13T02:04:39.188Z,12.27
2022-09-13T02:07:15.669Z,12.24
2022-09-13T02:09:57.110Z,12.21
2022-09-13T02:12:36.638Z,12.17
2022-09-13T02:15:25.558Z,12.12
2022-09-13T02:18:07.628Z,12.09
2022-09-13T02:20:44.917Z,12.06
2022-09-13T02:23:24.858Z,12.05
2022-09-13T02:25:59.060Z,12.03
2022-09-13T02:28:38.559Z,12.03
2022-09-13T02:31:39.755Z,12.03
2022-09-13T02:34:20.513Z,12.00
2022-09-13T02:36:57.071Z,11.98
2022-09-13T02:39:33.415Z,11.95
2022-09-13T02:42:16.089Z,11.91
2022-09-13T02:44:51.239Z,11.88
2022-09-13T02:47:45.256Z,11.85
2022-09-13T02:50:38.132Z,11.83
2022-09-13T02:53:23.959Z,11.84
2022-09-13T02:56:08.119Z,11.83
2022-09-13T02:58:50.723Z,11.82
2022-09-13T03:01:27.228Z,11.79
2022-09-13T03:04:03.844Z,11.74
2022-09-13T03:06:48.281Z,11.69
2022-09-13T03:09:22.405Z,11.66
2022-09-13T03:12:20.720Z,11.65
2022-09-13T03:15:04.092Z,11.62
2022-09-13T03:17:48.916Z,11.59
2022-09-13T03:20:32.100Z,11.58
2022-09-13T03:23:37.533Z,11.56
2022-09-13T03:26:28.032Z,11.51
2022-09-13T03:29:15.374Z,11.46
2022-09-13T03:31:56.023Z,11.43
2022-09-13T03:34:54.979Z,11.40
2022-09-13T03:37:35.092Z,11.39
2022-09-13T03:40:15.352Z,11.39
2022-09-13T03:42:54.414Z,11.37
2022-09-13T03:45:41.522Z,11.34
2022-09-13T03:48:18.994Z,11.33
2022-09-13T03:50:52.843Z,11.30
2022-09-13T03:53:28.753Z,11.30
2022-09-13T03:56:03.745Z,11.30
2022-09-13T03:58:36.817Z,11.28
2022-09-13T04:01:15.377Z,11.27
2022-09-13T04:03:56.356Z,11.28
2022-09-13T04:06:33.225Z,11.27
2022-09-13T04:09:09.175Z,11.25
2022-09-13T04:11:42.334Z,11.22
2022-09-13T04:14:18.623Z,11.22
2022-09-13T04:16:51.756Z,11.23
2022-09-13T04:19:34.094Z,11.26
2022-09-13T04:22:07.899Z,11.26
2022-09-13T04:24:44.396Z,11.24
2022-09-13T04:27:20.799Z,11.23
2022-09-13T04:29:54.044Z,11.22
2022-09-13T04:32:27.398Z,11.20
2022-09-13T04:35:00.803Z,11.19
2022-09-13T04:37:36.974Z,11.16
2022-09-13T04:40:15.006Z,11.17
2022-09-13T04:42:48.892Z,11.19
2022-09-13T04:45:25.794Z,11.21
2022-09-13T04:48:00.201Z,11.25
2022-09-13T04:50:40.852Z,11.28
2022-09-13T04:53:15.372Z,11.29
2022-09-13T04:55:48.787Z,11.31
2022-09-13T04:58:42.323Z,11.34
2022-09-13T05:01:18.437Z,11.36
2022-09-13T05:03:55.703Z,11.40
2022-09-13T05:06:32.389Z,11.42
2022-09-13T05:09:06.733Z,11.48
2022-09-13T05:11:40.095Z,11.55
2022-09-13T05:14:15.098Z,11.61
2022-09-13T05:16:48.399Z,11.67
2022-09-13T05:19:21.925Z,11.71
2022-09-13T05:21:55.172Z,11.76
2022-09-13T05:24:38.552Z,11.81
2022-09-13T05:27:11.658Z,11.86
2022-09-13T05:29:48.409Z,11.95
2022-09-13T05:32:42.240Z,12.06
2022-09-13T05:35:27.198Z,12.14
2022-09-13T05:38:03.119Z,12.27
2022-09-13T05:40:50.049Z,12.41
2022-09-13T05:43:23.310Z,12.53
2022-09-13T05:46:04.294Z,12.60
2022-09-13T05:48:48.888Z,12.69
2022-09-13T05:51:35.218Z,12.79
2022-09-13T05:54:14.284Z,12.85
2022-09-13T05:56:47.862Z,12.95
2022-09-13T05:59:21.153Z,13.14
2022-09-13T06:01:57.107Z,13.26
2022-09-13T06:04:31.754Z,13.36
2022-09-13T06:07:05.241Z,13.47
2022-09-13T06:09:43.114Z,13.59
2022-09-13T06:12:27.593Z,13.77
2022-09-13T06:15:01.267Z,13.95
2022-09-13T06:17:34.615Z,14.11
2022-09-13T06:20:28.469Z,14.24
2022-09-13T06:23:01.539Z,14.37
2022-09-13T06:25:39.394Z,14.55
2022-09-13T06:28:14.928Z,15.05
2022-09-13T06:31:03.222Z,15.89
2022-09-13T06:33:41.612Z,16.67
2022-09-13T06:36:20.243Z,17.87
2022-09-13T06:38:53.604Z,19.09
2022-09-13T06:41:29.588Z,20.37
2022-09-13T06:44:23.823Z,22.82
2022-09-13T06:47:11.956Z,25.23
2022-09-13T06:49:47.286Z,27.16
2022-09-13T06:52:23.337Z,28.82
2022-09-13T06:54:56.529Z,29.98
2022-09-13T06:57:31.829Z,31.03
2022-09-13T07:00:25.374Z,32.01
2022-09-13T07:02:58.545Z,32.83
2022-09-13T07:05:31.670Z,33.42
2022-09-13T07:08:05.237Z,32.67
2022-09-13T07:11:02.128Z,30.74
2022-09-13T07:13:49.030Z,28.72
2022-09-13T07:16:23.854Z,27.93
2022-09-13T07:19:19.259Z,27.95
2022-09-13T07:22:04.499Z,27.31
2022-09-13T07:24:40.072Z,26.80
2022-09-13T07:27:15.188Z,26.49
2022-09-13T07:29:58.675Z,26.25
2022-09-13T07:32:37.214Z,26.15
2022-09-13T07:35:13.139Z,26.26
2022-09-13T07:37:57.495Z,27.81
2022-09-13T07:40:42.748Z,29.90
2022-09-13T07:43:15.951Z,31.81
2022-09-13T07:46:11.004Z,33.59
2022-09-13T07:49:04.937Z,35.30
2022-09-13T07:51:51.713Z,36.59
2022-09-13T07:54:37.058Z,37.58
2022-09-13T07:57:10.214Z,37.63
2022-09-13T07:59:53.329Z,37.99
2022-09-13T08:02:47.035Z,39.06
2022-09-13T08:05:43.771Z,39.38
2022-09-13T08:08:38.538Z,40.06
2022-09-13T08:11:19.690Z,40.32
2022-09-13T08:13:54.109Z,39.95
2022-09-13T08:16:28.516Z,39.58
2022-09-13T08:19:05.888Z,38.77
2022-09-13T08:21:41.714Z,37.71
2022-09-13T08:24:19.915Z,37.00
2022-09-13T08:27:13.853Z,35.18
2022-09-13T08:30:08.751Z,33.84
2022-09-13T08:33:02.944Z,33.76
2022-09-13T08:35:39.525Z,33.81
2022-09-13T08:38:12.872Z,33.85
2022-09-13T08:41:26.093Z,33.01
2022-09-13T08:44:08.199Z,31.46
2022-09-13T08:46:46.632Z,29.89
2022-09-13T08:49:34.294Z,28.82
2022-09-13T08:52:26.191Z,27.90
2022-09-13T08:54:59.576Z,27.40
2022-09-13T08:57:38.884Z,27.00
2022-09-13T09:00:32.651Z,26.68
2022-09-13T09:03:18.744Z,26.32
2022-09-13T09:05:53.127Z,26.05
2022-09-13T09:08:34.726Z,25.78
2022-09-13T09:11:12.387Z,25.50
2022-09-13T09:14:14.246Z,25.24
2022-09-13T09:17:14.853Z,24.84
2022-09-13T09:19:55.950Z,24.45
2022-09-13T09:22:36.222Z,24.14
2022-09-13T09:25:14.643Z,23.90
2022-09-13T09:27:46.047Z,23.83
2022-09-13T09:30:19.974Z,23.66
2022-09-13T09:33:12.936Z,23.49
2022-09-13T09:36:04.246Z,23.41
2022-09-13T09:38:41.514Z,23.24
2022-09-13T09:41:26.068Z,23.01
2022-09-13T09:44:08.086Z,22.95
2022-09-13T09:46:44.354Z,22.92
2022-09-13T09:49:52.355Z,22.97
2022-09-13T09:52:31.382Z,23.14
2022-09-13T09:55:14.325Z,23.70
2022-09-13T09:58:02.341Z,23.90
2022-09-13T10:00:56.488Z,23.86
2022-09-13T10:03:57.947Z,23.85
2022-09-13T10:06:31.498Z,23.70
2022-09-13T10:09:21.512Z,23.45
2022-09-13T10:11:57.421Z,23.29
2022-09-13T10:14:42.814Z,22.91
2022-09-13T10:17:23.482Z,22.71
2022-09-13T10:20:05.436Z,22.52
2022-09-13T10:22:40.176Z,22.36
2022-09-13T10:25:23.268Z,22.29
2022-09-13T10:27:58.573Z,22.25
2022-09-13T10:30:38.046Z,22.22
2022-09-13T10:33:27.282Z,21.96
2022-09-13T10:36:00.830Z,21.72
2022-09-13T10:38:37.472Z,21.56
2022-09-13T10:41:22.546Z,21.51
2022-09-13T10:44:05.509Z,21.58
2022-09-13T10:46:44.725Z,21.64
2022-09-13T10:49:42.009Z,21.68
2022-09-13T10:52:31.327Z,21.60
2022-09-13T10:55:32.367Z,21.58
2022-09-13T10:58:18.303Z,21.59
2022-09-13T11:01:18.576Z,21.62
2022-09-13T11:04:16.515Z,21.70
2022-09-13T11:07:00.977Z,21.70
2022-09-13T11:09:39.598Z,21.61
2022-09-13T11:12:21.169Z,21.64
2022-09-13T11:15:29.158Z,21.66
2022-09-13T11:18:50.243Z,21.75
2022-09-13T11:21:38.467Z,21.78
2022-09-13T11:24:35.204Z,21.63
2022-09-13T11:27:31.447Z,21.38
2022-09-13T11:30:18.627Z,21.24
2022-09-13T11:33:21.237Z,21.21
2022-09-13T11:36:26.706Z,21.14
2022-09-13T11:39:09.622Z,21.18
2022-09-13T11:41:50.999Z,21.18
2022-09-13T11:44:44.300Z,21.15
2022-09-13T11:47:31.251Z,21.01
2022-09-13T11:50:24.719Z,21.00
2022-09-13T11:53:14.431Z,20.97
2022-09-13T11:55:51.511Z,20.90
2022-09-13T11:58:34.558Z,20.82
2022-09-13T12:01:10.292Z,20.76
2022-09-13T12:03:54.809Z,20.85
2022-09-13T12:06:44.552Z,20.94
2022-09-13T12:09:22.603Z,20.93
2022-09-13T12:12:03.863Z,20.92
2022-09-13T12:15:02.580Z,20.95
2022-09-13T12:18:02.126Z,21.01
2022-09-13T12:20:42.724Z,21.10
2022-09-13T12:23:40.581Z,21.16
2022-09-13T12:26:20.737Z,21.04
2022-09-13T12:28:59.824Z,20.94
2022-09-13T12:31:34.458Z,20.88
2022-09-13T12:34:11.938Z,20.85
2022-09-13T12:37:06.213Z,20.78
2022-09-13T12:39:59.204Z,20.72
2022-09-13T12:43:11.827Z,20.67
2022-09-13T12:46:19.918Z,20.59
2022-09-13T12:49:20.816Z,20.53
2022-09-13T12:52:02.568Z,20.42
2022-09-13T12:55:02.500Z,20.35
2022-09-13T12:57:47.624Z,20.35
2022-09-13T13:00:27.128Z,20.32
2022-09-13T13:03:18.304Z,20.31
2022-09-13T13:05:56.649Z,20.29
2022-09-13T13:08:32.519Z,20.30
2022-09-13T13:11:18.123Z,20.24
2022-09-13T13:14:09.959Z,20.15
2022-09-13T13:16:53.405Z,20.10
2022-09-13T13:19:37.466Z,20.10
2022-09-13T13:22:42.474Z,20.08
2022-09-13T13:25:39.386Z,20.07
2022-09-13T13:28:56.231Z,20.05
2022-09-13T13:31:43.832Z,19.96
2022-09-13T13:34:41.720Z,19.95
2022-09-13T13:37:40.559Z,19.98
2022-09-13T13:40:29.456Z,20.03
2022-09-13T13:43:34.008Z,20.07
2022-09-13T13:46:28.217Z,20.13
2022-09-13T13:49:34.888Z,20.10
2022-09-13T13:52:41.485Z,20.03
2022-09-13T13:55:47.171Z,20.06
2022-09-13T13:58:46.809Z,20.08
2022-09-13T14:01:27.486Z,20.04
2022-09-13T14:04:44.407Z,20.00
2022-09-13T14:07:54.515Z,19.96
2022-09-13T14:13:32.856Z,19.94
2022-09-13T14:16:14.351Z,19.93
2022-09-13T14:19:11.790Z,19.94
2022-09-13T14:21:45.284Z,20.00
2022-09-13T14:24:23.858Z,20.02
2022-09-13T14:26:59.907Z,20.04
2022-09-13T14:29:36.231Z,20.02
2022-09-13T14:32:15.727Z,19.99
2022-09-13T14:34:57.943Z,19.96
2022-09-13T14:37:42.179Z,19.98
2022-09-13T14:40:22.034Z,19.98
2022-09-13T14:42:56.344Z,19.96
2022-09-13T14:45:37.031Z,19.93
2022-09-13T14:48:17.453Z,19.95
2022-09-13T14:50:57.340Z,19.96
2022-09-13T14:53:36.077Z,19.98
2022-09-13T14:56:24.886Z,19.99
2022-09-13T14:59:00.387Z,19.97
2022-09-13T15:01:36.167Z,19.97
2022-09-13T15:04:12.962Z,19.95
2022-09-13T15:06:46.114Z,19.93
2022-09-13T15:09:29.937Z,19.91
2022-09-13T15:12:03.779Z,19.90
2022-09-13T15:14:39.742Z,19.86
2022-09-13T15:17:14.880Z,19.83
2022-09-13T15:19:53.622Z,19.80
2022-09-13T15:22:35.075Z,19.73
2022-09-13T15:25:25.415Z,19.68
2022-09-13T15:28:00.171Z,19.68
2022-09-13T15:30:43.388Z,19.65
2022-09-13T15:33:24.970Z,19.61
2022-09-13T15:36:17.904Z,19.59
2022-09-13T15:39:20.326Z,19.59
2022-09-13T15:42:03.333Z,19.58
2022-09-13T15:44:39.613Z,19.57
2022-09-13T15:47:20.516Z,19.56
2022-09-13T15:49:55.088Z,19.55
2022-09-13T15:52:28.316Z,19.54
2022-09-13T15:55:02.137Z,19.53
2022-09-13T15:57:35.377Z,19.53
2022-09-13T16:00:16.053Z,19.52
2022-09-13T16:02:50.270Z,19.55
2022-09-13T16:05:23.827Z,19.58
2022-09-13T16:07:59.182Z,19.61
2022-09-13T16:10:33.014Z,19.61
2022-09-13T16:13:09.772Z,19.57
2022-09-13T16:15:43.046Z,19.53
2022-09-13T16:18:19.559Z,19.50
2022-09-13T16:21:00.921Z,19.48
2022-09-13T16:23:36.408Z,19.45
2022-09-13T16:26:13.834Z,19.39
2022-09-13T16:28:47.114Z,19.35
2022-09-13T16:31:22.660Z,19.31
2022-09-13T16:34:06.939Z,19.27
2022-09-13T16:36:40.000Z,19.25
2022-09-13T16:39:13.300Z,19.23
2022-09-13T16:41:46.471Z,19.23
2022-09-13T16:44:29.182Z,19.22
2022-09-13T16:47:02.745Z,19.22
2022-09-13T16:49:36.035Z,19.19
2022-09-13T16:52:12.458Z,19.17
2022-09-13T16:55:06.162Z,19.14
2022-09-13T16:57:39.630Z,19.11
2022-09-13T17:00:16.034Z,19.09
2022-09-13T17:02:49.682Z,19.07
2022-09-13T17:05:43.421Z,19.05
2022-09-13T17:08:26.817Z,19.04
2022-09-13T17:11:06.034Z,19.04
2022-09-13T17:13:51.442Z,19.03
2022-09-13T17:16:30.431Z,19.01
2022-09-13T17:19:08.804Z,18.99
2022-09-13T17:21:45.541Z,18.98
2022-09-13T17:24:39.693Z,18.97
2022-09-13T17:27:12.952Z,18.97
2022-09-13T17:29:51.770Z,18.97
2022-09-13T17:32:24.918Z,18.96
2022-09-13T17:34:58.115Z,18.92
2022-09-13T17:37:33.979Z,18.90
2022-09-13T17:40:16.755Z,18.83
2022-09-13T17:43:10.215Z,18.78
2022-09-13T17:46:08.719Z,18.72
2022-09-13T17:48:41.978Z,18.68
2022-09-13T17:51:16.623Z,18.65
2022-09-13T17:53:51.346Z,18.63
2022-09-13T17:56:30.569Z,18.63
2022-09-13T17:59:10.178Z,18.62
2022-09-13T18:01:46.226Z,18.59
2022-09-13T18:04:21.443Z,18.60
2022-09-13T18:06:55.797Z,18.59
2022-09-13T18:09:29.468Z,18.60
2022-09-13T18:12:03.176Z,18.62
2022-09-13T18:14:38.851Z,18.62
2022-09-13T18:17:15.460Z,18.62
2022-09-13T18:19:52.548Z,18.60
2022-09-13T18:22:26.287Z,18.57
2022-09-13T18:25:03.336Z,18.54
2022-09-13T18:27:40.575Z,18.50
2022-09-13T18:30:25.616Z,18.49
2022-09-13T18:33:02.699Z,18.48
2022-09-13T18:35:39.553Z,18.47
2022-09-13T18:38:22.137Z,18.46
2022-09-13T18:41:06.435Z,18.44
2022-09-13T18:43:42.343Z,18.43
2022-09-13T18:46:20.896Z,18.39
2022-09-13T18:48:57.892Z,18.39
2022-09-13T18:51:34.017Z,18.40
2022-09-13T18:54:12.897Z,18.40
2022-09-13T18:56:46.363Z,18.38
2022-09-13T18:59:28.325Z,18.38
2022-09-13T19:02:05.962Z,18.36
2022-09-13T19:04:43.518Z,18.35
2022-09-13T19:07:16.919Z,18.33
2022-09-13T19:09:59.845Z,18.34
2022-09-13T19:12:33.291Z,18.34
2022-09-13T19:15:09.445Z,18.35
2022-09-13T19:17:43.499Z,18.36
2022-09-13T19:20:17.500Z,18.36
2022-09-13T19:22:52.855Z,18.38
2022-09-13T19:25:37.726Z,18.39
2022-09-13T19:28:11.415Z,18.38
2022-09-13T19:30:54.770Z,18.37
2022-09-13T19:33:33.646Z,18.35
2022-09-13T19:36:12.896Z,18.34
2022-09-13T19:38:48.066Z,18.32
2022-09-13T19:41:42.952Z,18.30
2022-09-13T19:44:18.288Z,18.28
2022-09-13T19:47:53.245Z,18.27
2022-09-13T19:50:00.495Z,18.28
2022-09-13T19:52:37.125Z,18.28
2022-09-13T19:55:14.421Z,18.28
2022-09-13T19:57:48.222Z,18.27
2022-09-13T20:00:25.136Z,18.24
2022-09-13T20:03:02.216Z,18.22
2022-09-13T20:05:38.332Z,18.21
2022-09-13T20:08:12.105Z,18.23
2022-09-13T20:11:10.144Z,18.27
2022-09-13T20:14:04.853Z,18.28
2022-09-13T20:16:40.489Z,18.28
2022-09-13T20:22:14.455Z,18.26
2022-09-13T20:24:48.023Z,18.27
2022-09-13T20:27:22.105Z,18.27
2022-09-13T20:29:56.466Z,18.27
2022-09-13T20:32:30.153Z,18.28
2022-09-13T20:35:15.111Z,18.26
2022-09-13T20:37:50.193Z,18.23
2022-09-13T20:40:24.819Z,18.20
2022-09-13T20:42:58.616Z,18.18
2022-09-13T20:45:32.303Z,18.17
2022-09-13T20:48:26.141Z,18.16
2022-09-13T20:51:05.532Z,18.12
2022-09-13T20:53:46.593Z,18.08
2022-09-13T20:56:40.707Z,18.06
2022-09-13T20:59:14.871Z,18.05
2022-09-13T21:01:48.401Z,18.03
2022-09-13T21:04:22.471Z,18.03
2022-09-13T21:07:15.924Z,18.04
2022-09-13T21:09:49.206Z,18.06
2022-09-13T21:12:22.610Z,18.07
2022-09-13T21:14:56.093Z,18.07
2022-09-13T21:17:29.373Z,18.07
2022-09-13T21:20:02.540Z,18.08
2022-09-13T21:22:36.446Z,18.12
2022-09-13T21:25:11.279Z,18.16
2022-09-13T21:27:47.860Z,18.21
2022-09-13T21:30:41.667Z,18.24
2022-09-13T21:33:14.879Z,18.24
2022-09-13T21:35:48.101Z,18.27
2022-09-13T21:38:21.628Z,18.30
2022-09-13T21:41:17.024Z,18.32
2022-09-13T21:43:53.034Z,18.29
2022-09-13T21:46:30.633Z,18.28
2022-09-13T21:49:18.247Z,18.25
2022-09-13T21:52:01.592Z,18.25
2022-09-13T21:54:44.078Z,18.24
2022-09-13T21:57:21.086Z,18.23
2022-09-13T21:59:54.237Z,18.23
2022-09-13T22:02:28.419Z,18.22
2022-09-13T22:05:01.629Z,18.19
2022-09-13T22:07:34.952Z,18.17
2022-09-13T22:10:10.243Z,18.14
2022-09-13T22:13:01.306Z,18.14
2022-09-13T22:15:35.950Z,18.15
2022-09-13T22:18:09.457Z,18.12
2022-09-13T22:20:42.560Z,18.12
2022-09-13T22:23:15.849Z,18.13
2022-09-13T22:25:49.008Z,18.14
2022-09-13T22:28:22.617Z,18.17
2022-09-13T22:31:04.691Z,18.18
2022-09-13T22:33:48.503Z,18.20
2022-09-13T22:36:25.413Z,18.18
2022-09-13T22:39:02.007Z,18.15
2022-09-13T22:41:38.269Z,18.14
2022-09-13T22:44:12.218Z,18.14
2022-09-13T22:46:48.332Z,18.15
2022-09-13T22:49:22.276Z,18.14
2022-09-13T22:52:04.852Z,18.12
2022-09-13T22:54:51.466Z,18.10
2022-09-13T22:57:34.902Z,18.10
2022-09-13T23:00:09.834Z,18.09
2022-09-13T23:02:46.973Z,18.10
2022-09-13T23:05:23.611Z,18.09
2022-09-13T23:07:59.758Z,18.11
2022-09-13T23:10:44.332Z,18.12
2022-09-13T23:13:17.632Z,18.14
2022-09-13T23:15:50.920Z,18.15
2022-09-13T23:18:24.188Z,18.15
2022-09-13T23:21:00.925Z,18.16
2022-09-13T23:23:37.625Z,18.16
2022-09-13T23:26:17.793Z,18.14
2022-09-13T23:28:56.751Z,18.12
2022-09-13T23:31:31.840Z,18.12
2022-09-13T23:34:08.217Z,18.14
2022-09-13T23:36:43.540Z,18.15
2022-09-13T23:39:20.490Z,18.16
2022-09-13T23:41:53.845Z,18.14
2022-09-13T23:44:36.254Z,18.10
2022-09-13T23:47:13.311Z,18.08
2022-09-13T23:50:07.710Z,18.08
2022-09-13T23:52:43.912Z,18.07
2022-09-13T23:55:22.050Z,18.07
2022-09-13T23:58:00.425Z,18.08
